Terminal Aerodrome Forecast
Issued by NWS

Home | Current Version | Previous Version | Graphics & Text | Print | Product List | Glossary On
Versions: 1 2 3 4 5 6 7 8 9 10 11 12 13 14 15 16 17 18
000
FTUS43 KGRB 212332
TAFATW
TAF
KATW 212332Z 2200/2224 17009KT P6SM SCT050
     FM220300 17008KT P6SM OVC060 WS020/26040KT
      TEMPO 2205/2209 2SM TSRA BKN022CB
     FM220900 21008KT 6SM -SHRA BR BKN045 WS017/27030KT
     FM221200 22010KT P6SM BKN060
     FM221400 24010G17KT P6SM BKN045
     FM221700 26009G14KT P6SM BKN045 PROB30 2220/2224 1SM TSRA
      BKN022CB=

USA.gov is the U.S. government's official web portal to all federal, state and local government web resources and services.